createdAt,value
2017-10-27T00:02:08.265Z,21.53
2017-10-27T00:04:36.343Z,20.20
2017-10-27T00:07:04.434Z,19.97
2017-10-27T00:09:32.508Z,22.77
2017-10-27T00:12:01.348Z,21.20
2017-10-27T00:14:29.412Z,29.20
2017-10-27T00:16:57.478Z,26.00
2017-10-27T00:19:25.566Z,22.60
2017-10-27T00:21:53.643Z,20.90
2017-10-27T00:24:21.738Z,29.40
2017-10-27T00:26:49.808Z,26.60
2017-10-27T00:29:17.895Z,27.17
2017-10-27T00:31:45.973Z,21.57
2017-10-27T00:34:14.058Z,20.53
2017-10-27T00:36:43.627Z,24.83
2017-10-27T00:39:11.719Z,29.00
2017-10-27T00:41:39.812Z,20.80
2017-10-27T00:44:07.922Z,29.50
2017-10-27T00:46:36.004Z,18.27
2017-10-27T00:49:04.059Z,23.63
2017-10-27T00:51:33.065Z,22.60
2017-10-27T00:54:01.133Z,22.10
2017-10-27T00:56:29.195Z,25.50
2017-10-27T00:58:57.267Z,23.10
2017-10-27T01:01:26.510Z,17.07
2017-10-27T01:03:54.581Z,24.23
2017-10-27T01:06:22.655Z,22.47
2017-10-27T01:08:50.735Z,28.20
2017-10-27T01:11:18.903Z,23.87
2017-10-27T01:13:47.080Z,20.33
2017-10-27T01:16:15.163Z,16.43
2017-10-27T01:18:43.226Z,18.40
2017-10-27T01:21:11.284Z,19.33
2017-10-27T01:23:39.371Z,18.10
2017-10-27T01:26:07.433Z,21.87
2017-10-27T01:28:35.527Z,15.43
2017-10-27T01:31:03.612Z,16.70
2017-10-27T01:33:31.680Z,23.70
2017-10-27T01:36:00.530Z,17.40
2017-10-27T01:38:28.623Z,17.90
2017-10-27T01:40:56.696Z,15.67
2017-10-27T01:43:24.762Z,19.33
2017-10-27T01:45:52.840Z,15.77
2017-10-27T01:48:20.908Z,12.57
2017-10-27T01:50:49.400Z,11.57
2017-10-27T01:53:17.460Z,8.40
2017-10-27T01:55:45.536Z,10.63
2017-10-27T01:58:13.610Z,8.70
2017-10-27T02:00:41.670Z,10.50
2017-10-27T02:03:09.739Z,8.50
2017-10-27T02:05:37.822Z,10.37
2017-10-27T02:08:05.887Z,5.10
2017-10-27T02:10:33.956Z,8.40
2017-10-27T02:13:02.031Z,5.80
2017-10-27T02:15:30.103Z,10.23
2017-10-27T02:17:58.183Z,10.97
2017-10-27T02:20:26.252Z,5.80
2017-10-27T02:22:54.316Z,7.10
2017-10-27T02:25:22.390Z,7.50
2017-10-27T02:27:51.224Z,8.97
2017-10-27T02:30:20.056Z,7.50
2017-10-27T02:32:48.123Z,8.70
2017-10-27T02:35:16.190Z,11.83
2017-10-27T02:37:44.604Z,11.67
2017-10-27T02:40:12.663Z,8.47
2017-10-27T02:42:40.784Z,10.87
2017-10-27T02:45:08.872Z,13.23
2017-10-27T02:47:36.970Z,19.47
2017-10-27T02:50:05.053Z,13.93
2017-10-27T02:52:33.123Z,13.93
2017-10-27T02:55:01.213Z,11.80
2017-10-27T02:57:29.280Z,12.07
2017-10-27T02:59:57.352Z,14.53
2017-10-27T03:02:25.403Z,13.70
2017-10-27T03:04:53.488Z,10.17
2017-10-27T03:07:21.548Z,12.63
2017-10-27T03:09:49.625Z,17.73
2017-10-27T03:12:17.698Z,16.03
2017-10-27T03:14:45.767Z,9.60
2017-10-27T03:17:14.443Z,12.50
2017-10-27T03:19:42.522Z,14.50
2017-10-27T03:22:10.600Z,13.50
2017-10-27T03:24:38.668Z,13.30
2017-10-27T03:27:07.512Z,11.33
2017-10-27T03:29:35.593Z,10.57
2017-10-27T03:32:04.413Z,10.97
2017-10-27T03:34:32.489Z,13.93
2017-10-27T03:37:00.588Z,11.23
2017-10-27T03:39:28.656Z,16.43
2017-10-27T03:41:56.719Z,19.23
2017-10-27T03:44:24.783Z,13.83
2017-10-27T03:46:52.853Z,9.03
2017-10-27T03:49:20.902Z,12.40
2017-10-27T03:51:48.975Z,14.37
2017-10-27T03:54:17.065Z,10.30
2017-10-27T03:56:45.115Z,14.07
2017-10-27T03:59:13.186Z,13.87
2017-10-27T04:01:41.259Z,15.00
2017-10-27T04:04:09.311Z,22.37
2017-10-27T04:06:37.403Z,10.23
2017-10-27T04:09:05.490Z,11.47
2017-10-27T04:11:33.547Z,11.30
2017-10-27T04:14:01.604Z,9.47
2017-10-27T04:16:29.674Z,12.77
2017-10-27T04:18:57.777Z,15.80
2017-10-27T04:21:25.851Z,19.10
2017-10-27T04:23:53.935Z,13.60
2017-10-27T04:26:22.005Z,17.00
2017-10-27T04:28:50.073Z,15.73
2017-10-27T04:31:19.283Z,14.07
2017-10-27T04:33:48.124Z,15.77
2017-10-27T04:36:16.178Z,16.30
2017-10-27T04:38:44.244Z,14.50
2017-10-27T04:41:12.332Z,10.47
2017-10-27T04:43:40.386Z,15.13
2017-10-27T04:46:08.498Z,12.63
2017-10-27T04:48:36.570Z,13.40
2017-10-27T04:51:04.657Z,13.80
2017-10-27T04:53:32.715Z,11.27
2017-10-27T04:56:00.792Z,9.33
2017-10-27T04:58:28.851Z,11.60
2017-10-27T05:00:56.935Z,15.07
2017-10-27T05:03:24.995Z,16.23
2017-10-27T05:05:53.084Z,13.17
2017-10-27T05:08:21.170Z,16.50
2017-10-27T05:10:49.224Z,10.40
2017-10-27T05:13:17.298Z,13.37
2017-10-27T05:15:45.371Z,13.20
2017-10-27T05:18:19.943Z,14.07
2017-10-27T05:20:53.779Z,12.70
2017-10-27T05:23:27.482Z,10.10
2017-10-27T05:25:55.604Z,17.23
2017-10-27T05:28:24.433Z,12.50
2017-10-27T05:30:52.499Z,12.23
2017-10-27T05:33:20.566Z,12.10
2017-10-27T05:35:48.651Z,16.83
2017-10-27T05:38:16.723Z,10.93
2017-10-27T05:40:44.779Z,12.70
2017-10-27T05:43:12.857Z,13.23
2017-10-27T05:45:40.931Z,15.03
2017-10-27T05:48:08.993Z,14.03
2017-10-27T05:50:37.079Z,10.77
2017-10-27T05:53:05.152Z,13.23
2017-10-27T05:55:33.196Z,10.10
2017-10-27T05:58:01.289Z,9.87
2017-10-27T06:00:29.343Z,9.30
2017-10-27T06:02:57.408Z,7.90
2017-10-27T06:05:25.476Z,9.90
2017-10-27T06:07:54.536Z,6.33
2017-10-27T06:10:22.579Z,10.50
2017-10-27T06:12:50.639Z,11.97
2017-10-27T06:15:18.695Z,9.67
2017-10-27T06:17:46.928Z,10.37
2017-10-27T06:20:15.081Z,7.50
2017-10-27T06:22:43.165Z,9.73
2017-10-27T06:25:11.243Z,6.40
2017-10-27T06:27:39.303Z,12.93
2017-10-27T06:30:07.377Z,17.03
2017-10-27T06:32:35.446Z,6.27
2017-10-27T06:35:04.345Z,8.10
2017-10-27T06:37:32.383Z,10.90
2017-10-27T06:40:00.455Z,14.73
2017-10-27T06:42:28.527Z,6.33
2017-10-27T06:44:56.607Z,10.27
2017-10-27T06:47:24.657Z,7.00
2017-10-27T06:49:52.739Z,7.00
2017-10-27T06:52:20.811Z,11.80
2017-10-27T06:54:48.879Z,12.00
2017-10-27T06:57:16.958Z,12.53
2017-10-27T06:59:45.029Z,8.43
2017-10-27T07:02:13.114Z,9.10
2017-10-27T07:04:41.180Z,7.00
2017-10-27T07:07:09.258Z,7.40
2017-10-27T07:09:37.316Z,8.63
2017-10-27T07:12:05.432Z,6.43
2017-10-27T07:14:33.541Z,13.67
2017-10-27T07:17:01.589Z,8.83
2017-10-27T07:19:29.651Z,8.20
2017-10-27T07:21:58.303Z,6.80
2017-10-27T07:24:26.394Z,9.33
2017-10-27T07:26:55.194Z,5.07
2017-10-27T07:29:23.238Z,8.00
2017-10-27T07:31:52.073Z,4.43
2017-10-27T07:34:20.903Z,4.37
2017-10-27T07:36:49.064Z,6.60
2017-10-27T07:39:17.107Z,5.57
2017-10-27T07:41:46.074Z,7.40
2017-10-27T07:44:14.115Z,10.40
2017-10-27T07:46:42.208Z,7.43
2017-10-27T07:49:10.289Z,4.30
2017-10-27T07:51:38.367Z,8.97
2017-10-27T07:54:06.452Z,6.40
2017-10-27T07:56:34.524Z,10.80
2017-10-27T07:59:03.344Z,5.00
2017-10-27T08:01:31.436Z,6.40
2017-10-27T08:03:59.506Z,10.57
2017-10-27T08:06:27.569Z,4.60
2017-10-27T08:08:55.642Z,12.00
2017-10-27T08:11:23.734Z,10.63
2017-10-27T08:13:51.819Z,8.13
2017-10-27T08:16:19.882Z,8.43
2017-10-27T08:18:47.941Z,6.10
2017-10-27T08:21:16.003Z,12.87
2017-10-27T08:23:44.105Z,8.10
2017-10-27T08:26:12.180Z,7.53
2017-10-27T08:28:41.025Z,5.80
2017-10-27T08:31:09.104Z,8.77
2017-10-27T08:33:37.180Z,7.20
2017-10-27T08:36:05.262Z,5.87
2017-10-27T08:38:33.315Z,5.63
2017-10-27T08:41:01.405Z,6.30
2017-10-27T08:43:29.576Z,7.70
2017-10-27T08:45:57.631Z,8.73
2017-10-27T08:48:25.695Z,7.57
2017-10-27T08:50:53.763Z,4.43
2017-10-27T08:53:21.851Z,4.83
2017-10-27T08:55:50.086Z,7.90
2017-10-27T08:58:18.142Z,7.83
2017-10-27T09:00:46.222Z,7.07
2017-10-27T09:03:14.295Z,11.20
2017-10-27T09:05:42.352Z,4.50
2017-10-27T09:08:10.479Z,5.90
2017-10-27T09:10:38.556Z,12.40
2017-10-27T09:13:07.249Z,5.27
2017-10-27T09:15:35.884Z,5.63
2017-10-27T09:18:03.993Z,6.27
2017-10-27T09:20:34.153Z,4.97
2017-10-27T09:23:03.018Z,6.03
2017-10-27T09:25:31.105Z,4.90
2017-10-27T09:27:59.153Z,9.13
2017-10-27T09:30:27.234Z,6.80
2017-10-27T09:32:55.301Z,7.17
2017-10-27T09:35:23.455Z,10.80
2017-10-27T09:37:52.302Z,8.77
2017-10-27T09:40:20.355Z,8.47
2017-10-27T09:42:48.422Z,6.73
2017-10-27T09:45:16.477Z,7.43
2017-10-27T09:47:44.551Z,7.13
2017-10-27T09:50:12.632Z,7.43
2017-10-27T09:52:40.792Z,10.73
2017-10-27T09:55:08.850Z,12.40
2017-10-27T09:57:36.917Z,7.07
2017-10-27T10:00:05.775Z,14.63
2017-10-27T10:02:33.857Z,9.83
2017-10-27T10:05:02.680Z,10.83
2017-10-27T10:07:30.758Z,5.07
2017-10-27T10:09:58.847Z,5.50
2017-10-27T10:12:26.899Z,9.20
2017-10-27T10:14:54.969Z,9.33
2017-10-27T10:17:23.017Z,7.03
2017-10-27T10:19:51.869Z,4.37
2017-10-27T10:22:19.923Z,6.47
2017-10-27T10:24:48.002Z,6.70
2017-10-27T10:27:16.046Z,6.40
2017-10-27T10:29:44.124Z,5.67
2017-10-27T10:32:12.212Z,9.77
2017-10-27T10:34:40.290Z,6.10
2017-10-27T10:37:09.143Z,4.60
2017-10-27T10:39:37.212Z,6.57
2017-10-27T10:42:05.295Z,10.00
2017-10-27T10:44:33.369Z,12.10
2017-10-27T10:47:01.437Z,5.30
2017-10-27T10:49:29.498Z,5.23
2017-10-27T10:51:57.560Z,7.63
2017-10-27T10:54:25.607Z,6.50
2017-10-27T10:56:53.703Z,8.70
2017-10-27T10:59:21.806Z,7.97
2017-10-27T11:01:50.618Z,9.30
2017-10-27T11:04:18.697Z,3.93
2017-10-27T11:06:46.780Z,5.60
2017-10-27T11:09:14.852Z,5.23
2017-10-27T11:11:42.925Z,4.67
2017-10-27T11:14:11.021Z,4.37
2017-10-27T11:16:39.079Z,4.93
2017-10-27T11:19:07.179Z,7.40
2017-10-27T11:21:35.228Z,5.97
2017-10-27T11:24:03.331Z,4.77
2017-10-27T11:26:31.385Z,9.70
2017-10-27T11:29:01.059Z,8.13
2017-10-27T11:31:30.290Z,4.50
2017-10-27T11:33:58.351Z,6.00
2017-10-27T11:36:26.403Z,5.63
2017-10-27T11:38:54.525Z,6.10
2017-10-27T11:41:23.364Z,7.47
2017-10-27T11:43:51.471Z,6.23
2017-10-27T11:46:20.279Z,4.20
2017-10-27T11:48:48.374Z,8.20
2017-10-27T11:51:16.460Z,4.73
2017-10-27T11:53:45.132Z,4.33
2017-10-27T11:56:13.232Z,11.97
2017-10-27T11:58:41.374Z,5.27
2017-10-27T12:01:09.781Z,7.00
2017-10-27T12:03:37.802Z,3.83
2017-10-27T12:06:06.655Z,3.17
2017-10-27T12:08:34.808Z,4.33
2017-10-27T12:11:02.902Z,7.83
2017-10-27T12:13:30.971Z,4.27
2017-10-27T12:15:59.048Z,5.03
2017-10-27T12:18:27.223Z,5.30
2017-10-27T12:20:55.299Z,6.70
2017-10-27T12:23:23.382Z,3.50
2017-10-27T12:25:51.434Z,10.10
2017-10-27T12:28:19.555Z,9.90
2017-10-27T12:30:47.631Z,6.33
2017-10-27T12:33:15.723Z,5.63
2017-10-27T12:35:43.831Z,6.67
2017-10-27T12:38:11.903Z,7.10
2017-10-27T12:40:40.043Z,5.73
2017-10-27T12:43:08.094Z,6.60
2017-10-27T12:45:37.008Z,9.23
2017-10-27T12:48:05.111Z,4.43
2017-10-27T12:50:33.189Z,6.70
2017-10-27T12:53:01.281Z,7.65
2017-10-27T12:55:29.360Z,7.27
2017-10-27T12:57:58.947Z,4.30
2017-10-27T13:00:27.075Z,5.17
2017-10-27T13:02:55.144Z,6.33
2017-10-27T13:05:23.239Z,4.57
2017-10-27T13:07:51.311Z,9.70
2017-10-27T13:10:19.367Z,3.90
2017-10-27T13:12:47.451Z,4.23
2017-10-27T13:15:16.689Z,6.83
2017-10-27T13:17:44.757Z,11.73
2017-10-27T13:33:15.337Z,12.57
2017-10-27T13:35:45.144Z,4.90
2017-10-27T13:38:13.219Z,3.33
2017-10-27T13:40:41.297Z,7.90
2017-10-27T13:43:09.355Z,4.57
2017-10-27T13:45:37.454Z,4.50
2017-10-27T13:48:05.711Z,8.10
2017-10-27T13:50:33.994Z,4.63
2017-10-27T13:53:02.100Z,3.50
2017-10-27T13:55:31.546Z,4.87
2017-10-27T13:57:59.628Z,6.70
2017-10-27T14:00:28.667Z,5.90
2017-10-27T14:02:56.745Z,9.90
2017-10-27T14:05:25.579Z,8.20
2017-10-27T14:07:53.704Z,2.60
2017-10-27T14:10:22.585Z,4.20
2017-10-27T14:12:50.881Z,2.33
2017-10-27T14:15:19.792Z,3.53
2017-10-27T14:17:47.852Z,7.78
2017-10-27T14:20:15.959Z,4.50
2017-10-27T14:22:44.040Z,6.50
2017-10-27T14:25:12.148Z,9.50
2017-10-27T14:27:40.981Z,7.53
2017-10-27T14:30:09.091Z,10.43
2017-10-27T14:32:37.211Z,5.00
2017-10-27T14:35:06.032Z,6.13
2017-10-27T14:37:34.312Z,4.70
2017-10-27T14:40:03.179Z,4.60
2017-10-27T14:42:31.307Z,4.80
2017-10-27T14:44:59.353Z,4.97
2017-10-27T14:47:27.420Z,2.70
2017-10-27T14:49:55.506Z,4.93
2017-10-27T14:52:23.582Z,3.20
2017-10-27T14:54:51.672Z,2.30
2017-10-27T14:57:19.729Z,4.97
2017-10-27T14:59:47.806Z,4.40
2017-10-27T15:02:15.870Z,4.50
2017-10-27T15:04:43.929Z,5.63
2017-10-27T15:07:11.997Z,5.50
2017-10-27T15:09:40.092Z,11.87
2017-10-27T15:12:08.134Z,7.47
2017-10-27T15:14:36.230Z,3.80
2017-10-27T15:17:04.280Z,3.93
2017-10-27T15:19:32.350Z,6.03
2017-10-27T15:22:00.417Z,8.30
2017-10-27T15:24:28.487Z,3.77
2017-10-27T15:26:56.589Z,2.73
2017-10-27T15:29:24.652Z,5.17
2017-10-27T15:31:52.720Z,4.50
2017-10-27T15:34:20.798Z,4.73
2017-10-27T15:36:48.877Z,4.63
2017-10-27T15:39:16.977Z,4.33
2017-10-27T15:41:45.043Z,7.43
2017-10-27T15:44:13.127Z,5.60
2017-10-27T15:46:41.200Z,4.73
2017-10-27T15:49:09.287Z,5.27
2017-10-27T15:51:37.340Z,9.13
2017-10-27T15:54:05.411Z,7.83
2017-10-27T15:56:33.492Z,4.00
2017-10-27T15:59:01.560Z,8.37
2017-10-27T16:01:29.625Z,10.30
2017-10-27T16:03:57.752Z,61.80
2017-10-27T16:06:25.876Z,62.07
2017-10-27T16:08:53.962Z,32.20
2017-10-27T16:11:22.032Z,6.83
2017-10-27T16:13:50.102Z,60.73
2017-10-27T16:16:18.218Z,9.67
2017-10-27T16:18:46.295Z,7.70
2017-10-27T16:21:15.115Z,7.77
2017-10-27T16:23:43.223Z,6.40
2017-10-27T16:26:11.305Z,11.80
2017-10-27T16:28:39.492Z,8.23
2017-10-27T16:31:07.623Z,12.50
2017-10-27T16:33:35.840Z,11.67
2017-10-27T16:36:03.932Z,8.80
2017-10-27T16:38:32.800Z,8.50
2017-10-27T16:41:00.867Z,7.50
2017-10-27T16:43:29.800Z,7.53
2017-10-27T16:45:57.864Z,13.50
2017-10-27T16:48:25.940Z,5.50
2017-10-27T16:50:54.010Z,10.00
2017-10-27T16:53:22.081Z,5.30
2017-10-27T16:55:50.199Z,6.23
2017-10-27T16:58:18.427Z,7.17
2017-10-27T17:00:46.495Z,8.33
2017-10-27T17:03:14.568Z,8.67
2017-10-27T17:05:42.637Z,6.07
2017-10-27T17:08:10.743Z,6.90
2017-10-27T17:10:39.614Z,8.63
2017-10-27T17:13:07.694Z,8.67
2017-10-27T17:15:36.542Z,7.00
2017-10-27T17:18:04.618Z,5.90
2017-10-27T17:20:33.302Z,9.87
2017-10-27T17:23:01.390Z,4.53
2017-10-27T17:25:29.457Z,8.23
2017-10-27T17:27:57.583Z,9.03
2017-10-27T17:30:26.431Z,10.57
2017-10-27T17:32:54.499Z,11.60
2017-10-27T17:35:22.560Z,16.97
2017-10-27T17:37:50.638Z,9.70
2017-10-27T17:40:24.896Z,4.07
2017-10-27T17:42:52.971Z,16.33
2017-10-27T17:45:21.045Z,17.27
2017-10-27T17:47:49.119Z,6.97
2017-10-27T17:50:17.236Z,6.73
2017-10-27T17:52:45.310Z,8.33
2017-10-27T17:55:13.379Z,8.53
2017-10-27T17:57:41.468Z,5.63
2017-10-27T18:00:09.540Z,4.27
2017-10-27T18:02:37.609Z,9.70
2017-10-27T18:05:05.715Z,8.10
2017-10-27T18:07:33.791Z,7.53
2017-10-27T18:10:01.864Z,9.47
2017-10-27T18:12:30.819Z,13.50
2017-10-27T18:14:58.929Z,8.50
2017-10-27T18:17:27.061Z,6.20
2017-10-27T18:19:55.155Z,5.97
2017-10-27T18:22:23.231Z,8.27
2017-10-27T18:24:51.274Z,11.70
2017-10-27T18:27:19.374Z,19.10
2017-10-27T18:29:47.463Z,11.57
2017-10-27T18:32:15.546Z,6.33
2017-10-27T18:34:44.450Z,9.70
2017-10-27T18:37:12.528Z,7.60
2017-10-27T18:39:41.417Z,10.73
2017-10-27T18:42:09.492Z,8.90
2017-10-27T18:44:37.536Z,11.20
2017-10-27T18:47:05.625Z,7.47
2017-10-27T18:49:33.728Z,6.50
2017-10-27T18:52:01.789Z,15.47
2017-10-27T18:54:29.895Z,9.17
2017-10-27T18:56:57.993Z,7.63
2017-10-27T18:59:26.838Z,7.33
2017-10-27T19:01:54.929Z,5.63
2017-10-27T19:04:22.983Z,9.93
2017-10-27T19:06:51.117Z,7.17
2017-10-27T19:09:19.309Z,8.47
2017-10-27T19:11:56.686Z,18.70
2017-10-27T19:14:41.521Z,8.70
2017-10-27T19:17:16.918Z,10.97
2017-10-27T19:19:47.536Z,9.67
2017-10-27T19:22:18.580Z,5.23
2017-10-27T19:24:50.266Z,7.00
2017-10-27T19:27:23.494Z,8.30
2017-10-27T19:29:56.944Z,15.10
2017-10-27T19:32:26.144Z,8.00
2017-10-27T19:34:58.611Z,9.03
2017-10-27T19:43:02.284Z,5.40
2017-10-27T19:45:30.703Z,9.07
2017-10-27T19:48:01.123Z,7.47
2017-10-27T19:50:29.819Z,7.83
2017-10-27T19:52:59.410Z,8.80
2017-10-27T19:55:27.619Z,7.63
2017-10-27T19:58:05.049Z,5.83
2017-10-27T20:00:37.232Z,7.37
2017-10-27T20:03:05.749Z,6.13
2017-10-27T20:05:40.477Z,8.50
2017-10-27T20:08:08.572Z,10.00
2017-10-27T20:10:36.685Z,11.23
2017-10-27T20:13:04.763Z,5.03
2017-10-27T20:15:32.858Z,11.77
2017-10-27T20:18:00.916Z,10.00
2017-10-27T20:20:28.995Z,12.43
2017-10-27T20:22:57.069Z,11.17
2017-10-27T20:25:25.950Z,8.80
2017-10-27T20:27:54.024Z,12.93
2017-10-27T20:30:22.111Z,11.83
2017-10-27T20:32:50.985Z,10.37
2017-10-27T20:35:19.090Z,8.70
2017-10-27T20:37:47.652Z,9.80
2017-10-27T20:40:18.419Z,8.33
2017-10-27T20:42:48.247Z,10.20
2017-10-27T20:45:17.186Z,9.23
2017-10-27T20:47:46.040Z,9.80
2017-10-27T20:50:14.924Z,9.60
2017-10-27T20:52:43.922Z,13.60
2017-10-27T20:55:12.059Z,8.90
2017-10-27T20:57:40.150Z,7.30
2017-10-27T21:00:08.442Z,9.13
2017-10-27T21:02:36.714Z,6.27
2017-10-27T21:05:05.021Z,6.90
2017-10-27T21:07:39.542Z,10.50
2017-10-27T21:10:10.877Z,6.33
2017-10-27T21:12:45.843Z,12.30
2017-10-27T21:15:17.525Z,9.93
2017-10-27T21:18:04.229Z,10.90
2017-10-27T21:20:46.128Z,9.27
2017-10-27T21:25:57.954Z,7.50
2017-10-27T21:28:26.188Z,8.40
2017-10-27T21:30:55.005Z,4.50
2017-10-27T21:33:25.248Z,8.43
2017-10-27T21:35:57.260Z,4.67
2017-10-27T21:38:35.239Z,6.63
2017-10-27T21:41:05.821Z,9.73
2017-10-27T21:43:35.718Z,7.43
2017-10-27T21:46:09.906Z,8.00
2017-10-27T21:48:41.245Z,3.83
2017-10-27T21:51:11.807Z,3.90
2017-10-27T21:53:42.449Z,6.63
2017-10-27T21:56:11.487Z,4.80
2017-10-27T21:58:39.824Z,9.27
2017-10-27T22:01:12.541Z,6.87
2017-10-27T22:03:42.807Z,4.50
2017-10-27T22:06:28.169Z,6.43
2017-10-27T22:11:40.384Z,4.50
2017-10-27T22:14:17.644Z,6.13
2017-10-27T22:34:12.995Z,9.90
2017-10-27T22:46:27.347Z,7.43
2017-10-27T22:48:57.171Z,8.67
2017-10-27T22:51:25.582Z,8.53
2017-10-27T22:53:58.588Z,8.20
2017-10-27T23:09:35.329Z,10.70
2017-10-27T23:12:04.631Z,4.77
2017-10-27T23:14:32.868Z,7.37
2017-10-27T23:17:02.310Z,12.40
2017-10-27T23:19:31.389Z,5.73
2017-10-27T23:22:01.014Z,12.03
2017-10-27T23:24:40.133Z,10.63
2017-10-27T23:27:21.466Z,10.90
2017-10-27T23:32:34.230Z,9.93
2017-10-27T23:35:06.480Z,13.63
2017-10-27T23:37:42.362Z,13.20
2017-10-27T23:40:10.820Z,8.23
2017-10-27T23:42:39.015Z,11.03
2017-10-27T23:45:07.194Z,10.23
2017-10-27T23:47:37.364Z,5.57
2017-10-27T23:50:10.912Z,9.20
2017-10-27T23:52:43.595Z,12.90
2017-10-27T23:55:25.114Z,10.10
